Time;durP1;ratioP1;P1;durP2;ratioP2;P2;SDS_P1;SDS_P2;PMS_P1;PMS_P2;Temp;Humidity;BMP_temperature;BMP_pressure;BME280_temperature;BME280_humidity;BME280_pressure;Samples;Min_cycle;Max_cycle;Signal;HPM_P1;HPM_P2
2021/08/17 00:00:01;;;;;;;9.30;2.97;;;;;;;;;;4975306;28;20852;-46
2021/08/17 00:02:27;;;;;;;12.00;3.97;;;;;;;;;;4975437;28;20453;-46
2021/08/17 00:04:53;;;;;;;7.90;3.37;;;;;;;;;;4975167;28;20489;-46
2021/08/17 00:07:19;;;;;;;11.73;3.63;;;;;;;;;;4975222;28;20406;-46
2021/08/17 00:09:45;;;;;;;8.73;3.47;;;;;;;;;;4974747;28;20937;-46
2021/08/17 00:12:14;;;;;;;6.73;3.30;;;;;;;;;;4974796;28;20460;-46
2021/08/17 00:14:40;;;;;;;12.97;3.60;;;;;;;;;;4974887;28;20413;-46
2021/08/17 00:17:09;;;;;;;8.70;3.20;;;;;;;;;;4974100;28;20414;-45
2021/08/17 00:19:38;;;;;;;9.20;3.90;;;;;;;;;;4974604;28;20425;-46
2021/08/17 00:22:07;;;;;;;7.53;3.20;;;;;;;;;;4974803;28;20500;-45
2021/08/17 00:24:39;;;;;;;11.57;3.57;;;;;;;;;;4974705;28;20492;-46
2021/08/17 00:27:05;;;;;;;9.80;3.47;;;;;;;;;;4975017;28;20402;-45
2021/08/17 00:29:32;;;;;;;7.43;3.40;;;;;;;;;;4974430;28;20976;-45
2021/08/17 00:32:00;;;;;;;12.33;4.37;;;;;;;;;;4974742;28;20409;-46
2021/08/17 00:34:29;;;;;;;5.67;3.70;;;;;;;;;;4974537;28;20455;-45
2021/08/17 00:36:56;;;;;;;14.50;5.57;;;;;;;;;;4974552;28;20413;-46
2021/08/17 00:39:23;;;;;;;11.17;3.20;;;;;;;;;;4974102;28;20428;-46
2021/08/17 00:41:51;;;;;;;9.53;4.80;;;;;;;;;;4974661;28;20421;-46
2021/08/17 00:44:25;;;;;;;9.90;4.13;;;;;;;;;;4974339;28;20457;-45
2021/08/17 00:46:54;;;;;;;7.73;4.00;;;;;;;;;;4974364;28;20414;-46
2021/08/17 00:49:20;;;;;;;14.33;4.30;;;;;;;;;;4973782;28;20445;-46
2021/08/17 00:51:46;;;;;;;8.87;3.60;;;;;;;;;;4973871;28;20402;-46
2021/08/17 00:54:15;;;;;;;11.57;3.80;;;;;;;;;;4974229;28;20780;-46
2021/08/17 00:56:41;;;;;;;10.20;4.53;;;;;;;;;;4974224;28;20417;-46
2021/08/17 00:59:08;;;;;;;8.50;3.70;;;;;;;;;;4973894;28;20810;-46
2021/08/17 01:01:34;;;;;;;7.63;3.63;;;;;;;;;;4973728;28;20410;-46
2021/08/17 01:04:07;;;;;;;7.30;4.20;;;;;;;;;;4973549;28;20460;-46
2021/08/17 01:06:33;;;;;;;8.27;4.47;;;;;;;;;;4975279;28;20414;-44
2021/08/17 01:08:59;;;;;;;11.70;4.77;;;;;;;;;;4973999;28;20426;-45
2021/08/17 01:11:25;;;;;;;10.30;4.87;;;;;;;;;;4973781;28;20434;-44
2021/08/17 01:13:51;;;;;;;10.70;4.33;;;;;;;;;;4973951;28;20778;-45
2021/08/17 01:16:19;;;;;;;10.73;4.17;;;;;;;;;;4973774;28;20414;-45
2021/08/17 01:18:45;;;;;;;118.03;32.13;;;;;;;;;;4973543;28;20505;-45
2021/08/17 01:21:11;;;;;;;11.37;4.90;;;;;;;;;;4973682;28;20439;-45
2021/08/17 01:23:37;;;;;;;16.77;6.07;;;;;;;;;;4973894;28;20469;-44
2021/08/17 01:26:03;;;;;;;12.63;4.47;;;;;;;;;;4973869;28;20586;-44
2021/08/17 01:28:29;;;;;;;20.80;6.20;;;;;;;;;;4973606;28;20412;-44
2021/08/17 01:31:02;;;;;;;13.60;5.43;;;;;;;;;;4973629;28;20413;-44
2021/08/17 01:33:28;;;;;;;10.80;5.20;;;;;;;;;;4973823;28;20458;-45
2021/08/17 01:35:54;;;;;;;13.10;5.30;;;;;;;;;;4973895;28;20476;-44
2021/08/17 01:38:20;;;;;;;10.43;4.97;;;;;;;;;;4973819;28;20462;-44
2021/08/17 01:40:46;;;;;;;7.93;5.13;;;;;;;;;;4973711;28;20878;-43
2021/08/17 01:43:12;;;;;;;9.57;4.80;;;;;;;;;;4973669;28;20456;-44
2021/08/17 01:45:38;;;;;;;11.13;5.30;;;;;;;;;;4973444;28;20441;-44
2021/08/17 01:48:05;;;;;;;15.10;5.00;;;;;;;;;;4973308;28;20508;-46
2021/08/17 01:50:32;;;;;;;11.70;5.30;;;;;;;;;;4973260;28;20481;-43
2021/08/17 01:52:58;;;;;;;16.67;6.67;;;;;;;;;;4973370;28;20421;-44
2021/08/17 01:55:23;;;;;;;10.50;5.83;;;;;;;;;;4973220;28;20513;-44
2021/08/17 01:57:50;;;;;;;8.87;5.40;;;;;;;;;;4973265;28;20406;-44
2021/08/17 02:00:16;;;;;;;10.57;5.57;;;;;;;;;;4972781;28;20433;-44
2021/08/17 02:02:42;;;;;;;12.37;5.77;;;;;;;;;;4972135;28;20819;-44
2021/08/17 02:05:08;;;;;;;12.03;5.80;;;;;;;;;;4972986;28;20401;-44
2021/08/17 02:07:34;;;;;;;19.30;7.10;;;;;;;;;;4973056;28;20992;-46
2021/08/17 02:10:01;;;;;;;18.63;5.50;;;;;;;;;;4972641;28;20465;-46
2021/08/17 02:12:27;;;;;;;8.70;6.20;;;;;;;;;;4972742;28;20442;-46
2021/08/17 02:14:53;;;;;;;11.00;6.13;;;;;;;;;;4973292;28;20786;-46
2021/08/17 02:17:18;;;;;;;17.93;6.80;;;;;;;;;;4972700;28;21133;-46
2021/08/17 02:19:46;;;;;;;17.57;6.93;;;;;;;;;;4972712;28;20848;-47
2021/08/17 02:22:12;;;;;;;13.37;6.77;;;;;;;;;;4972506;28;20411;-45
2021/08/17 02:24:38;;;;;;;26.43;7.70;;;;;;;;;;4972646;28;20401;-46
2021/08/17 02:27:04;;;;;;;18.53;8.20;;;;;;;;;;4972543;28;20405;-45
2021/08/17 02:29:30;;;;;;;22.60;10.00;;;;;;;;;;4972181;28;20421;-47
2021/08/17 02:31:56;;;;;;;22.73;10.43;;;;;;;;;;4972584;28;20416;-46
2021/08/17 02:34:22;;;;;;;27.90;9.10;;;;;;;;;;4972622;28;20408;-47
2021/08/17 02:36:48;;;;;;;18.53;8.73;;;;;;;;;;4972530;28;20919;-45
2021/08/17 02:39:13;;;;;;;20.37;8.23;;;;;;;;;;4972247;28;20782;-44
2021/08/17 02:41:39;;;;;;;25.63;9.50;;;;;;;;;;4972329;28;20782;-45
2021/08/17 02:44:05;;;;;;;25.40;11.30;;;;;;;;;;4972170;28;20461;-43
2021/08/17 02:46:31;;;;;;;17.80;9.13;;;;;;;;;;4972152;28;20397;-43
2021/08/17 02:48:57;;;;;;;25.10;11.00;;;;;;;;;;4972079;28;20472;-44
2021/08/17 02:51:23;;;;;;;20.33;9.67;;;;;;;;;;4972104;28;20407;-44
2021/08/17 02:53:49;;;;;;;23.37;12.13;;;;;;;;;;4972235;28;20420;-44
2021/08/17 02:56:15;;;;;;;34.13;12.50;;;;;;;;;;4972116;28;20471;-46
2021/08/17 02:58:41;;;;;;;28.33;12.10;;;;;;;;;;4971822;28;20425;-45
2021/08/17 03:01:07;;;;;;;26.27;12.33;;;;;;;;;;4971996;28;20840;-44
2021/08/17 03:03:33;;;;;;;34.87;14.53;;;;;;;;;;4972036;28;20849;-44
2021/08/17 03:05:59;;;;;;;33.63;13.40;;;;;;;;;;4972050;28;20397;-44
2021/08/17 03:08:25;;;;;;;35.50;15.53;;;;;;;;;;4971822;28;20591;-45
2021/08/17 03:10:51;;;;;;;39.40;18.20;;;;;;;;;;4971837;28;20397;-44
2021/08/17 03:13:17;;;;;;;35.30;14.90;;;;;;;;;;4971661;28;20463;-42
2021/08/17 03:15:43;;;;;;;42.80;16.90;;;;;;;;;;4971887;28;20405;-43
2021/08/17 03:18:09;;;;;;;40.50;17.17;;;;;;;;;;4971853;28;20413;-44
2021/08/17 03:20:37;;;;;;;41.83;17.30;;;;;;;;;;4971857;28;20460;-43
2021/08/17 03:23:03;;;;;;;42.77;18.47;;;;;;;;;;4972104;28;20452;-43
2021/08/17 03:25:29;;;;;;;46.00;18.23;;;;;;;;;;4971842;28;20401;-43
2021/08/17 03:27:56;;;;;;;38.27;18.57;;;;;;;;;;4971688;28;20406;-43
2021/08/17 03:30:22;;;;;;;40.37;19.07;;;;;;;;;;4971625;28;20436;-42
2021/08/17 03:32:49;;;;;;;43.73;19.87;;;;;;;;;;4971932;28;20409;-44
2021/08/17 03:35:15;;;;;;;49.07;20.50;;;;;;;;;;4972046;28;20916;-43
2021/08/17 03:37:41;;;;;;;45.27;20.40;;;;;;;;;;4972336;28;20415;-43
2021/08/17 03:40:09;;;;;;;45.37;20.43;;;;;;;;;;4972114;28;20428;-43
2021/08/17 03:42:36;;;;;;;47.73;20.00;;;;;;;;;;4971789;28;20512;-45
2021/08/17 03:45:03;;;;;;;50.47;21.23;;;;;;;;;;4971927;28;20826;-43
2021/08/17 03:47:29;;;;;;;49.83;20.60;;;;;;;;;;4971751;28;20409;-46
2021/08/17 03:49:55;;;;;;;47.07;21.33;;;;;;;;;;4971634;28;20425;-46
2021/08/17 03:52:21;;;;;;;56.03;23.30;;;;;;;;;;4971593;28;20432;-45
2021/08/17 03:54:47;;;;;;;53.10;21.90;;;;;;;;;;4971767;28;20409;-45
2021/08/17 03:57:13;;;;;;;52.87;22.17;;;;;;;;;;4971493;28;20409;-43
2021/08/17 03:59:39;;;;;;;53.80;21.50;;;;;;;;;;4971351;28;20902;-43
2021/08/17 04:02:05;;;;;;;54.43;22.17;;;;;;;;;;4971521;28;20405;-43
2021/08/17 04:04:31;;;;;;;62.80;21.73;;;;;;;;;;4971619;28;20496;-43
2021/08/17 04:06:57;;;;;;;47.50;20.87;;;;;;;;;;4971553;28;20413;-43
2021/08/17 04:09:22;;;;;;;55.07;20.90;;;;;;;;;;4971298;28;20468;-44
2021/08/17 04:11:48;;;;;;;52.57;20.93;;;;;;;;;;4971270;28;20460;-43
2021/08/17 04:14:14;;;;;;;51.90;20.60;;;;;;;;;;4971525;28;20409;-44
2021/08/17 04:16:40;;;;;;;50.93;20.63;;;;;;;;;;4971339;28;20460;-43
2021/08/17 04:19:06;;;;;;;50.97;19.90;;;;;;;;;;4971220;28;20487;-44
2021/08/17 04:21:32;;;;;;;50.73;21.80;;;;;;;;;;4971197;28;20416;-44
2021/08/17 04:23:59;;;;;;;49.13;21.93;;;;;;;;;;4971218;28;20458;-46
2021/08/17 04:26:25;;;;;;;52.60;21.60;;;;;;;;;;4973947;28;20911;-43
2021/08/17 04:28:51;;;;;;;49.37;21.97;;;;;;;;;;4974726;28;20425;-43
2021/08/17 04:31:17;;;;;;;56.53;21.10;;;;;;;;;;4974753;28;20500;-43
2021/08/17 04:33:43;;;;;;;61.43;24.30;;;;;;;;;;4974655;28;20418;-44
2021/08/17 04:36:09;;;;;;;50.00;21.47;;;;;;;;;;4974635;28;20409;-43
2021/08/17 04:38:35;;;;;;;57.03;23.37;;;;;;;;;;4974202;28;20444;-44
2021/08/17 04:41:01;;;;;;;49.47;20.97;;;;;;;;;;4974424;28;20420;-44
2021/08/17 04:43:27;;;;;;;54.00;21.90;;;;;;;;;;4974325;28;20457;-44
2021/08/17 04:45:53;;;;;;;52.37;21.30;;;;;;;;;;4974493;28;20734;-43
2021/08/17 04:48:19;;;;;;;58.60;20.57;;;;;;;;;;4974281;28;20409;-43
2021/08/17 04:50:45;;;;;;;64.37;22.10;;;;;;;;;;4974338;28;20894;-45
2021/08/17 04:53:11;;;;;;;47.27;19.80;;;;;;;;;;4974213;28;20401;-44
2021/08/17 04:55:37;;;;;;;57.03;21.20;;;;;;;;;;4974265;28;20408;-45
2021/08/17 04:58:05;;;;;;;56.30;20.63;;;;;;;;;;4974115;28;20504;-43
2021/08/17 05:00:32;;;;;;;51.00;20.23;;;;;;;;;;4974131;28;20432;-44
2021/08/17 05:02:58;;;;;;;50.23;20.17;;;;;;;;;;4974067;28;20548;-43
2021/08/17 05:05:24;;;;;;;49.73;19.43;;;;;;;;;;4974162;28;20910;-43
2021/08/17 05:07:51;;;;;;;47.73;19.47;;;;;;;;;;4974076;28;20410;-44
2021/08/17 05:10:19;;;;;;;56.93;21.33;;;;;;;;;;4974884;28;20436;-45
2021/08/17 05:12:45;;;;;;;52.10;19.10;;;;;;;;;;4973870;28;20434;-44
2021/08/17 05:15:11;;;;;;;46.93;19.27;;;;;;;;;;4974026;28;20445;-45
2021/08/17 05:17:38;;;;;;;53.33;21.10;;;;;;;;;;4973994;28;20409;-45
2021/08/17 05:20:05;;;;;;;49.47;21.70;;;;;;;;;;4973693;28;20425;-45
2021/08/17 05:22:31;;;;;;;46.40;19.20;;;;;;;;;;4973680;28;20813;-44
2021/08/17 05:24:57;;;;;;;47.63;18.57;;;;;;;;;;4974152;28;20404;-44
2021/08/17 05:27:23;;;;;;;46.93;19.53;;;;;;;;;;4974035;28;20859;-45
2021/08/17 05:29:52;;;;;;;38.00;17.83;;;;;;;;;;4973699;28;20825;-46
2021/08/17 05:32:18;;;;;;;50.40;20.30;;;;;;;;;;4973840;28;20819;-45
2021/08/17 05:34:44;;;;;;;40.10;16.13;;;;;;;;;;4973678;28;20409;-44
2021/08/17 05:37:10;;;;;;;37.33;16.47;;;;;;;;;;4973438;28;20495;-45
2021/08/17 05:39:35;;;;;;;41.40;17.47;;;;;;;;;;4973297;28;20882;-45
2021/08/17 05:42:01;;;;;;;39.67;17.23;;;;;;;;;;4973446;28;20412;-44
2021/08/17 05:44:27;;;;;;;35.57;16.60;;;;;;;;;;4973213;28;20565;-45
2021/08/17 05:46:53;;;;;;;44.53;18.13;;;;;;;;;;4973388;28;20417;-45
2021/08/17 05:49:19;;;;;;;38.43;17.57;;;;;;;;;;4972958;28;20477;-44
2021/08/17 05:51:46;;;;;;;38.20;16.60;;;;;;;;;;4973176;28;20417;-45
2021/08/17 05:54:12;;;;;;;33.43;15.67;;;;;;;;;;4973172;28;20415;-45
2021/08/17 05:56:38;;;;;;;43.57;18.60;;;;;;;;;;4973061;28;20412;-45
2021/08/17 05:59:04;;;;;;;40.37;16.93;;;;;;;;;;4972809;28;20434;-45
2021/08/17 06:01:30;;;;;;;40.73;18.03;;;;;;;;;;4973053;28;20403;-45
2021/08/17 06:03:56;;;;;;;43.37;17.33;;;;;;;;;;4972921;28;20455;-45
2021/08/17 06:06:22;;;;;;;44.43;20.10;;;;;;;;;;4972993;28;21061;-45
2021/08/17 06:08:48;;;;;;;45.27;20.50;;;;;;;;;;4972677;28;21019;-45
2021/08/17 06:11:14;;;;;;;42.40;18.80;;;;;;;;;;4972743;28;20477;-45
2021/08/17 06:13:39;;;;;;;41.70;19.00;;;;;;;;;;4972906;28;20407;-45
2021/08/17 06:16:05;;;;;;;42.10;20.13;;;;;;;;;;4972899;28;20909;-45
2021/08/17 06:18:32;;;;;;;45.17;20.00;;;;;;;;;;4972454;28;20490;-45
2021/08/17 06:20:57;;;;;;;38.90;19.30;;;;;;;;;;4972578;28;20408;-45
2021/08/17 06:23:23;;;;;;;47.00;19.57;;;;;;;;;;4972584;28;20562;-45
2021/08/17 06:25:49;;;;;;;44.80;21.60;;;;;;;;;;4972566;28;20411;-44
2021/08/17 06:28:15;;;;;;;44.43;20.40;;;;;;;;;;4972329;28;20403;-45
2021/08/17 06:30:41;;;;;;;38.37;20.03;;;;;;;;;;4972561;28;21042;-45
2021/08/17 06:33:08;;;;;;;44.77;20.47;;;;;;;;;;4972409;28;20411;-45
2021/08/17 06:35:34;;;;;;;46.33;20.63;;;;;;;;;;4972526;28;20645;-45
2021/08/17 06:38:00;;;;;;;42.53;19.93;;;;;;;;;;4972582;28;20420;-46
2021/08/17 06:40:26;;;;;;;46.50;21.37;;;;;;;;;;4972125;28;20513;-45
2021/08/17 06:42:52;;;;;;;45.63;21.00;;;;;;;;;;4972295;28;20444;-45
2021/08/17 06:45:19;;;;;;;40.47;20.30;;;;;;;;;;4972278;28;20418;-45
2021/08/17 06:47:49;;;;;;;39.23;18.80;;;;;;;;;;4971742;28;20407;-44
2021/08/17 06:50:15;;;;;;;39.50;19.30;;;;;;;;;;4972111;28;20403;-45
2021/08/17 06:52:41;;;;;;;40.00;20.53;;;;;;;;;;4972262;28;20409;-44
2021/08/17 06:55:08;;;;;;;43.20;21.60;;;;;;;;;;4972098;28;20412;-45
2021/08/17 06:57:34;;;;;;;41.73;21.83;;;;;;;;;;4972242;28;20419;-45
2021/08/17 07:00:00;;;;;;;44.97;21.77;;;;;;;;;;4971701;28;20492;-45
2021/08/17 07:02:26;;;;;;;46.33;21.90;;;;;;;;;;4972401;28;20415;-45
2021/08/17 07:04:52;;;;;;;40.20;21.90;;;;;;;;;;4971970;28;20406;-45
2021/08/17 07:07:17;;;;;;;46.77;24.17;;;;;;;;;;4972036;28;20403;-45
2021/08/17 07:09:43;;;;;;;41.80;22.20;;;;;;;;;;4971621;28;20404;-44
2021/08/17 07:12:10;;;;;;;45.17;23.40;;;;;;;;;;4971965;28;20428;-45
2021/08/17 07:14:36;;;;;;;44.17;22.37;;;;;;;;;;4972046;28;20415;-45
2021/08/17 07:17:02;;;;;;;36.57;21.57;;;;;;;;;;4971917;28;20380;-45
2021/08/17 07:19:28;;;;;;;37.27;20.70;;;;;;;;;;4971629;28;20913;-45
2021/08/17 07:21:55;;;;;;;43.30;22.07;;;;;;;;;;4972100;28;20384;-45
2021/08/17 07:24:21;;;;;;;43.43;23.33;;;;;;;;;;4971922;28;20434;-44
2021/08/17 07:26:47;;;;;;;44.47;22.87;;;;;;;;;;4971973;28;20387;-45
2021/08/17 07:29:13;;;;;;;43.33;22.93;;;;;;;;;;4971626;28;20454;-45
2021/08/17 07:31:39;;;;;;;42.77;21.57;;;;;;;;;;4972219;28;20410;-45
2021/08/17 07:34:06;;;;;;;44.30;22.17;;;;;;;;;;4968813;28;20845;-45
2021/08/17 07:36:33;;;;;;;43.07;22.60;;;;;;;;;;4971780;28;20472;-45
2021/08/17 07:38:59;;;;;;;40.50;21.37;;;;;;;;;;4971525;28;20439;-46
2021/08/17 07:41:25;;;;;;;42.00;20.73;;;;;;;;;;4971726;28;20469;-45
2021/08/17 07:43:51;;;;;;;41.43;21.20;;;;;;;;;;4971657;28;20419;-45
2021/08/17 07:46:17;;;;;;;45.73;22.60;;;;;;;;;;4972104;28;20423;-45
2021/08/17 07:48:43;;;;;;;39.87;21.87;;;;;;;;;;4971449;28;20396;-45
2021/08/17 07:51:09;;;;;;;35.30;21.67;;;;;;;;;;4971551;28;20389;-45
2021/08/17 07:53:35;;;;;;;43.67;22.80;;;;;;;;;;4971638;28;20497;-45
2021/08/17 07:56:03;;;;;;;44.37;22.07;;;;;;;;;;4971592;28;20447;-45
2021/08/17 07:58:29;;;;;;;49.83;24.70;;;;;;;;;;4970232;28;20469;-45
2021/08/17 08:00:55;;;;;;;42.97;24.07;;;;;;;;;;4971801;28;20414;-45
2021/08/17 08:03:21;;;;;;;49.97;23.57;;;;;;;;;;4974792;28;20967;-45
2021/08/17 08:05:47;;;;;;;38.93;22.17;;;;;;;;;;4974954;28;20429;-45
2021/08/17 08:08:13;;;;;;;42.80;24.00;;;;;;;;;;4974976;28;20373;-45
2021/08/17 08:10:39;;;;;;;43.07;24.10;;;;;;;;;;4975174;28;20415;-45
2021/08/17 08:13:05;;;;;;;37.13;22.13;;;;;;;;;;4975137;28;20396;-45
2021/08/17 08:15:31;;;;;;;40.10;22.03;;;;;;;;;;4974908;28;20403;-45
2021/08/17 08:17:57;;;;;;;37.57;21.40;;;;;;;;;;4975072;28;20761;-45
2021/08/17 08:20:23;;;;;;;38.90;22.60;;;;;;;;;;4974760;28;20409;-45
2021/08/17 08:22:52;;;;;;;38.97;23.07;;;;;;;;;;4974952;28;20512;-45
2021/08/17 08:25:18;;;;;;;38.80;21.80;;;;;;;;;;4974917;28;20760;-45
2021/08/17 08:27:45;;;;;;;47.37;22.23;;;;;;;;;;4974827;28;20491;-45
2021/08/17 08:30:11;;;;;;;42.83;22.60;;;;;;;;;;4974366;28;20858;-46
2021/08/17 08:32:37;;;;;;;30.77;19.10;;;;;;;;;;4974741;28;20405;-45
2021/08/17 08:35:04;;;;;;;30.43;19.40;;;;;;;;;;4974655;28;20412;-45
2021/08/17 08:37:30;;;;;;;37.07;18.50;;;;;;;;;;4974898;28;20416;-44
2021/08/17 08:39:57;;;;;;;29.50;18.87;;;;;;;;;;4974265;28;20429;-45
2021/08/17 08:42:23;;;;;;;29.20;17.47;;;;;;;;;;4974381;28;20439;-45
2021/08/17 08:44:51;;;;;;;27.80;16.40;;;;;;;;;;4974721;28;20551;-45
2021/08/17 08:47:17;;;;;;;30.77;18.20;;;;;;;;;;4974529;28;20432;-45
2021/08/17 08:49:43;;;;;;;28.37;16.93;;;;;;;;;;4974217;28;20514;-45
2021/08/17 08:52:09;;;;;;;29.93;17.30;;;;;;;;;;4974373;28;20406;-45
2021/08/17 08:54:35;;;;;;;23.10;14.67;;;;;;;;;;4974449;28;20405;-46
2021/08/17 08:57:01;;;;;;;30.97;16.00;;;;;;;;;;4974185;28;20502;-45
2021/08/17 08:59:27;;;;;;;27.00;16.00;;;;;;;;;;4973940;28;20940;-45
2021/08/17 09:02:09;;;;;;;31.83;16.33;;;;;;;;;;4974216;28;20377;-45
2021/08/17 09:04:36;;;;;;;24.50;15.57;;;;;;;;;;4974291;28;20456;-45
2021/08/17 09:07:02;;;;;;;27.63;16.13;;;;;;;;;;4974149;28;20403;-45
2021/08/17 09:09:29;;;;;;;24.83;15.10;;;;;;;;;;4973853;28;20422;-45
2021/08/17 09:11:56;;;;;;;29.03;16.77;;;;;;;;;;4973772;28;20392;-45
2021/08/17 09:14:25;;;;;;;26.63;16.00;;;;;;;;;;4974290;28;20413;-45
2021/08/17 09:16:53;;;;;;;27.87;16.70;;;;;;;;;;4974273;28;20428;-45
2021/08/17 09:19:22;;;;;;;28.03;17.00;;;;;;;;;;4974002;28;20822;-45
2021/08/17 09:21:48;;;;;;;25.13;15.40;;;;;;;;;;4974061;28;20379;-45
2021/08/17 09:24:15;;;;;;;20.57;14.50;;;;;;;;;;4973893;28;20522;-45
2021/08/17 09:26:45;;;;;;;27.43;15.83;;;;;;;;;;4973809;28;20381;-45
2021/08/17 09:29:11;;;;;;;30.20;16.50;;;;;;;;;;4973635;28;20428;-45
2021/08/17 09:31:38;;;;;;;26.57;14.70;;;;;;;;;;4973747;28;20409;-45
2021/08/17 09:34:05;;;;;;;27.77;16.30;;;;;;;;;;4973721;28;20391;-45
2021/08/17 09:36:38;;;;;;;29.70;15.80;;;;;;;;;;4973530;28;20414;-45
2021/08/17 09:39:05;;;;;;;29.87;17.20;;;;;;;;;;4973382;28;20403;-45
2021/08/17 09:41:31;;;;;;;27.67;15.07;;;;;;;;;;4973410;28;20894;-45
2021/08/17 09:43:58;;;;;;;29.20;15.70;;;;;;;;;;4973538;28;20560;-45
2021/08/17 09:46:28;;;;;;;25.07;15.87;;;;;;;;;;4973375;28;20411;-45
2021/08/17 09:48:55;;;;;;;28.17;16.17;;;;;;;;;;4973159;28;20399;-45
2021/08/17 09:51:32;;;;;;;25.77;15.20;;;;;;;;;;4973101;28;20839;-45
2021/08/17 09:54:11;;;;;;;24.40;15.53;;;;;;;;;;4973302;28;20383;-45
2021/08/17 09:56:37;;;;;;;24.83;15.50;;;;;;;;;;4973285;28;20416;-45
2021/08/17 09:59:04;;;;;;;28.93;15.03;;;;;;;;;;4972994;28;20429;-45
2021/08/17 10:01:30;;;;;;;26.23;14.63;;;;;;;;;;4973085;28;20454;-45
2021/08/17 10:03:57;;;;;;;23.17;13.60;;;;;;;;;;4972978;28;20430;-45
2021/08/17 10:06:23;;;;;;;22.70;13.33;;;;;;;;;;4972963;28;20404;-45
2021/08/17 10:08:51;;;;;;;25.73;14.37;;;;;;;;;;4972758;28;20563;-45
2021/08/17 10:11:18;;;;;;;26.33;14.73;;;;;;;;;;4972889;28;20424;-45
2021/08/17 10:13:45;;;;;;;23.70;14.53;;;;;;;;;;4972969;28;20406;-45
2021/08/17 10:16:11;;;;;;;27.17;13.10;;;;;;;;;;4972712;28;20414;-45
2021/08/17 10:18:37;;;;;;;25.63;13.80;;;;;;;;;;4972848;28;20425;-45
2021/08/17 10:21:04;;;;;;;22.37;12.80;;;;;;;;;;4972540;28;20379;-45
2021/08/17 10:23:31;;;;;;;20.77;12.67;;;;;;;;;;4970007;28;20443;-45
2021/08/17 10:25:59;;;;;;;25.10;14.10;;;;;;;;;;4972925;28;20379;-45
2021/08/17 10:28:25;;;;;;;19.73;12.40;;;;;;;;;;4972338;28;20819;-45
2021/08/17 10:30:51;;;;;;;19.20;13.57;;;;;;;;;;4972320;28;20378;-45
2021/08/17 10:33:35;;;;;;;23.13;13.27;;;;;;;;;;4972372;28;20793;-45
2021/08/17 10:36:01;;;;;;;22.53;13.90;;;;;;;;;;4972446;28;20934;-45
2021/08/17 10:38:27;;;;;;;25.60;12.20;;;;;;;;;;4972171;28;20412;-45
2021/08/17 10:40:54;;;;;;;19.50;11.97;;;;;;;;;;4972357;28;20419;-45
2021/08/17 10:43:20;;;;;;;22.70;11.50;;;;;;;;;;4972044;28;20459;-45
2021/08/17 10:45:53;;;;;;;20.10;11.33;;;;;;;;;;4972297;28;20490;-45
2021/08/17 10:48:38;;;;;;;18.23;12.17;;;;;;;;;;4971028;28;20469;-45
2021/08/17 10:51:08;;;;;;;17.47;11.77;;;;;;;;;;4972104;28;20891;-45
2021/08/17 10:53:40;;;;;;;17.73;10.80;;;;;;;;;;4972016;28;20383;-45
2021/08/17 10:56:17;;;;;;;23.13;11.17;;;;;;;;;;4972230;28;20458;-45
2021/08/17 10:58:45;;;;;;;22.10;12.03;;;;;;;;;;4971721;28;20969;-45
2021/08/17 11:01:11;;;;;;;17.50;11.50;;;;;;;;;;4972005;28;20768;-44
2021/08/17 11:03:39;;;;;;;17.53;11.00;;;;;;;;;;4971962;28;20426;-45
2021/08/17 11:06:05;;;;;;;18.57;10.63;;;;;;;;;;4972014;28;20400;-45
2021/08/17 11:08:31;;;;;;;18.30;10.40;;;;;;;;;;4971473;28;20379;-45
2021/08/17 11:10:58;;;;;;;18.43;11.40;;;;;;;;;;4965936;28;20978;-45
2021/08/17 11:13:25;;;;;;;19.27;10.40;;;;;;;;;;4952860;29;20759;-44
2021/08/17 11:16:11;;;;;;;16.93;9.73;;;;;;;;;;4952467;29;20470;-45
2021/08/17 11:18:52;;;;;;;22.43;12.27;;;;;;;;;;4952327;28;20473;-43
2021/08/17 11:21:30;;;;;;;14.70;10.00;;;;;;;;;;4952535;29;20413;-44
2021/08/17 11:24:07;;;;;;;16.90;10.03;;;;;;;;;;4952617;29;20436;-44
2021/08/17 11:26:33;;;;;;;15.20;10.63;;;;;;;;;;4952543;29;20894;-44
2021/08/17 11:28:59;;;;;;;21.00;10.60;;;;;;;;;;4952366;28;20393;-44
2021/08/17 11:31:25;;;;;;;18.10;11.03;;;;;;;;;;4952403;29;20384;-44
2021/08/17 11:33:51;;;;;;;18.00;10.50;;;;;;;;;;4953187;28;20495;-43
2021/08/17 11:36:23;;;;;;;18.63;10.23;;;;;;;;;;4956635;29;20471;-44
2021/08/17 11:38:49;;;;;;;13.60;9.37;;;;;;;;;;4956322;28;20451;-44
2021/08/17 11:41:30;;;;;;;18.20;10.37;;;;;;;;;;4956290;29;20853;-44
2021/08/17 11:44:09;;;;;;;20.87;10.70;;;;;;;;;;4956085;29;20489;-44
2021/08/17 11:46:35;;;;;;;18.73;10.10;;;;;;;;;;4956207;29;20799;-44
2021/08/17 11:49:19;;;;;;;15.30;9.83;;;;;;;;;;4955837;28;20955;-44
2021/08/17 11:51:45;;;;;;;17.57;10.13;;;;;;;;;;4956084;29;20408;-44
2021/08/17 11:54:18;;;;;;;18.43;10.40;;;;;;;;;;4955733;29;20397;-44
2021/08/17 11:56:44;;;;;;;13.20;8.90;;;;;;;;;;4955898;29;20850;-44
2021/08/17 11:59:10;;;;;;;12.27;8.53;;;;;;;;;;4955628;28;20483;-44
2021/08/17 12:01:36;;;;;;;16.60;9.40;;;;;;;;;;4955864;29;20796;-45
2021/08/17 12:04:06;;;;;;;18.40;11.10;;;;;;;;;;4955720;29;20479;-44
2021/08/17 12:06:32;;;;;;;16.60;9.80;;;;;;;;;;4955750;29;20384;-44
2021/08/17 12:09:27;;;;;;;14.67;9.80;;;;;;;;;;4955491;28;20798;-45
2021/08/17 12:11:57;;;;;;;14.10;9.13;;;;;;;;;;4939210;29;20857;-44
2021/08/17 12:14:26;;;;;;;16.90;9.20;;;;;;;;;;4955638;29;20453;-45
2021/08/17 12:16:56;;;;;;;13.07;8.30;;;;;;;;;;4955711;29;20890;-44
2021/08/17 12:19:22;;;;;;;13.10;9.03;;;;;;;;;;4955179;28;20407;-44
2021/08/17 12:21:48;;;;;;;15.60;8.87;;;;;;;;;;4955646;29;20384;-45
2021/08/17 12:24:27;;;;;;;13.47;8.20;;;;;;;;;;4955479;29;20457;-45
2021/08/17 12:26:54;;;;;;;12.30;7.97;;;;;;;;;;4955571;29;20839;-45
2021/08/17 12:29:23;;;;;;;13.13;7.80;;;;;;;;;;4955106;28;20457;-45
2021/08/17 12:31:49;;;;;;;19.43;11.23;;;;;;;;;;4955273;29;20418;-45
2021/08/17 12:34:15;;;;;;;18.30;11.40;;;;;;;;;;4955344;29;20387;-45
2021/08/17 12:36:46;;;;;;;14.17;8.37;;;;;;;;;;4963480;28;20450;-46
2021/08/17 12:39:18;;;;;;;11.83;8.23;;;;;;;;;;4937935;29;20412;-45
2021/08/17 12:41:55;;;;;;;12.30;7.30;;;;;;;;;;4955238;29;20410;-45
2021/08/17 12:44:32;;;;;;;8.23;5.70;;;;;;;;;;4955559;29;20496;-44
2021/08/17 12:46:59;;;;;;;12.53;7.40;;;;;;;;;;4954243;28;20778;-45
2021/08/17 12:49:35;;;;;;;14.20;6.43;;;;;;;;;;4954958;28;20535;-45
2021/08/17 12:52:20;;;;;;;11.80;6.00;;;;;;;;;;4954939;29;20768;-44
2021/08/17 12:54:46;;;;;;;8.53;6.43;;;;;;;;;;4969182;28;20453;-45
2021/08/17 12:57:15;;;;;;;7.90;5.97;;;;;;;;;;4974458;28;20382;-44
2021/08/17 12:59:41;;;;;;;8.90;5.30;;;;;;;;;;4973758;28;20431;-45
2021/08/17 13:02:07;;;;;;;14.17;6.10;;;;;;;;;;4974171;28;20494;-45
2021/08/17 13:04:33;;;;;;;5.97;5.37;;;;;;;;;;4974190;28;20434;-45
2021/08/17 13:06:59;;;;;;;6.70;5.47;;;;;;;;;;4974094;28;20863;-45
2021/08/17 13:09:25;;;;;;;10.13;5.63;;;;;;;;;;4974108;28;20955;-45
2021/08/17 13:11:51;;;;;;;12.13;5.93;;;;;;;;;;4974077;28;20790;-45
2021/08/17 13:14:17;;;;;;;10.27;6.20;;;;;;;;;;4974135;28;20776;-45
2021/08/17 13:16:43;;;;;;;7.90;6.90;;;;;;;;;;4973739;28;20761;-45
2021/08/17 13:19:09;;;;;;;10.83;6.80;;;;;;;;;;4973565;28;20496;-45
2021/08/17 13:21:35;;;;;;;10.70;7.33;;;;;;;;;;4973558;28;20381;-45
2021/08/17 13:24:02;;;;;;;11.90;7.20;;;;;;;;;;4973416;28;21265;-45
2021/08/17 13:26:28;;;;;;;8.77;6.33;;;;;;;;;;4973674;28;20494;-45
2021/08/17 13:28:54;;;;;;;9.50;7.03;;;;;;;;;;4973260;28;20436;-45
2021/08/17 13:31:20;;;;;;;11.63;7.43;;;;;;;;;;4973403;28;20404;-45
2021/08/17 13:33:45;;;;;;;10.27;7.67;;;;;;;;;;4973400;28;20430;-45
2021/08/17 13:36:11;;;;;;;7.80;6.83;;;;;;;;;;4973131;28;20401;-45
2021/08/17 13:38:37;;;;;;;10.87;7.40;;;;;;;;;;4973149;28;20400;-45
2021/08/17 13:41:03;;;;;;;9.73;8.20;;;;;;;;;;4973041;28;20410;-45
2021/08/17 13:43:29;;;;;;;11.27;7.13;;;;;;;;;;4973423;28;20503;-45
2021/08/17 13:45:58;;;;;;;9.47;8.47;;;;;;;;;;4973008;28;20390;-45
2021/08/17 13:48:24;;;;;;;12.43;8.03;;;;;;;;;;4973018;28;20401;-45
2021/08/17 13:50:50;;;;;;;12.10;8.67;;;;;;;;;;4972774;28;20412;-45
2021/08/17 13:53:16;;;;;;;11.77;7.70;;;;;;;;;;4973516;28;20782;-45
2021/08/17 13:55:42;;;;;;;11.87;7.63;;;;;;;;;;4972973;28;20415;-45
2021/08/17 13:58:08;;;;;;;9.63;7.20;;;;;;;;;;4973038;28;20390;-44
2021/08/17 14:00:37;;;;;;;13.60;7.80;;;;;;;;;;4972597;28;20438;-45
2021/08/17 14:03:03;;;;;;;13.40;7.70;;;;;;;;;;4972873;28;20452;-45
2021/08/17 14:05:29;;;;;;;12.40;8.40;;;;;;;;;;4972728;28;20408;-45
2021/08/17 14:07:55;;;;;;;11.60;8.17;;;;;;;;;;4972746;28;20837;-44
2021/08/17 14:10:22;;;;;;;11.10;7.83;;;;;;;;;;4972520;28;20831;-45
2021/08/17 14:12:48;;;;;;;12.53;8.00;;;;;;;;;;4972735;28;20897;-45
2021/08/17 14:15:14;;;;;;;10.27;7.40;;;;;;;;;;4971610;28;20411;-45
2021/08/17 14:17:40;;;;;;;10.53;7.40;;;;;;;;;;4972704;28;20427;-45
2021/08/17 14:20:07;;;;;;;13.90;7.83;;;;;;;;;;4972162;28;20416;-45
2021/08/17 14:22:33;;;;;;;8.80;6.90;;;;;;;;;;4972416;28;20806;-46